Time;durP1;ratioP1;P1;durP2;ratioP2;P2;SDS_P1;SDS_P2;PMS_P1;PMS_P2;Temp;Humidity;BMP_temperature;BMP_pressure;BME280_temperature;BME280_humidity;BME280_pressure;Samples;Min_cycle;Max_cycle;Signal;HPM_P1;HPM_P2
2022/06/20 00:01:00;;;;;;;7.47;2.45;;;16.70;99.90;;;;;;2081791;28;20022;-69
2022/06/20 00:02:01;;;;;;;3.20;2.10;;;16.70;99.90;;;;;;2081756;28;20068;-69
2022/06/20 00:03:03;;;;;;;3.13;1.90;;;16.70;99.90;;;;;;2079700;28;20106;-69
2022/06/20 00:04:04;;;;;;;4.45;2.45;;;16.70;99.90;;;;;;2080129;28;20779;-69
2022/06/20 00:05:05;;;;;;;5.22;2.25;;;16.70;99.90;;;;;;2079511;28;20033;-69
2022/06/20 00:06:05;;;;;;;4.95;2.28;;;16.70;99.90;;;;;;2079428;28;20017;-69
2022/06/20 00:07:08;;;;;;;6.13;2.42;;;16.60;99.90;;;;;;2080838;28;20025;-69
2022/06/20 00:08:10;;;;;;;3.50;1.73;;;16.60;99.90;;;;;;2078750;28;21241;-69
2022/06/20 00:09:12;;;;;;;4.18;1.80;;;16.60;99.90;;;;;;2080624;28;20435;-69
2022/06/20 00:10:16;;;;;;;2.90;1.95;;;16.60;99.90;;;;;;2079802;28;20029;-69
2022/06/20 00:11:20;;;;;;;3.35;1.90;;;16.60;99.90;;;;;;2079058;28;20670;-69
2022/06/20 00:12:26;;;;;;;4.95;2.17;;;16.60;99.90;;;;;;2079076;28;20018;-69
2022/06/20 00:13:35;;;;;;;3.78;2.03;;;16.60;99.90;;;;;;2080268;28;20025;-69
2022/06/20 00:14:35;;;;;;;2.63;1.63;;;16.70;99.90;;;;;;2080850;28;20427;-69
2022/06/20 00:15:36;;;;;;;6.70;2.63;;;16.70;99.90;;;;;;2080331;28;20029;-69
2022/06/20 00:16:37;;;;;;;4.88;2.15;;;16.70;99.90;;;;;;2081303;28;20025;-69
2022/06/20 00:17:37;;;;;;;4.25;1.90;;;16.60;99.90;;;;;;2080484;28;20056;-69
2022/06/20 00:18:38;;;;;;;3.08;1.88;;;16.60;99.90;;;;;;2081440;28;20021;-69
2022/06/20 00:19:42;;;;;;;5.47;2.60;;;16.60;99.90;;;;;;2081562;28;20021;-69
2022/06/20 00:20:43;;;;;;;4.75;2.10;;;16.60;99.90;;;;;;2080470;28;20377;-69
2022/06/20 00:21:43;;;;;;;7.22;2.20;;;16.60;99.90;;;;;;2080261;28;20049;-69
2022/06/20 00:22:44;;;;;;;4.60;1.80;;;16.50;99.90;;;;;;2082376;28;20086;-69
2022/06/20 00:23:45;;;;;;;5.35;2.08;;;16.50;99.90;;;;;;2080044;28;20029;-69
2022/06/20 00:24:46;;;;;;;6.35;1.80;;;16.60;99.90;;;;;;2079683;28;20021;-69
2022/06/20 00:25:47;;;;;;;6.05;2.20;;;16.60;99.90;;;;;;2079320;28;20033;-69
2022/06/20 00:26:47;;;;;;;4.78;2.40;;;16.60;99.90;;;;;;2081231;28;20021;-69
2022/06/20 00:27:50;;;;;;;3.38;2.10;;;16.60;99.90;;;;;;2080830;28;20508;-69
2022/06/20 00:28:50;;;;;;;3.35;2.08;;;16.60;99.90;;;;;;2079377;28;20024;-69
2022/06/20 00:29:51;;;;;;;6.63;2.53;;;16.60;99.90;;;;;;2080733;28;20025;-69
2022/06/20 00:30:51;;;;;;;3.13;1.98;;;16.60;99.90;;;;;;2081978;28;20025;-69
2022/06/20 00:31:52;;;;;;;2.67;1.73;;;16.60;99.90;;;;;;2078013;28;20094;-69
2022/06/20 00:32:53;;;;;;;4.32;2.30;;;16.60;99.90;;;;;;2081496;28;20033;-69
2022/06/20 00:33:53;;;;;;;7.03;2.17;;;16.60;99.90;;;;;;2081173;28;20103;-69
2022/06/20 00:34:54;;;;;;;4.10;1.90;;;16.60;99.90;;;;;;2071995;28;20052;-69
2022/06/20 00:35:54;;;;;;;2.85;1.88;;;16.60;99.90;;;;;;2070833;28;20034;-69
2022/06/20 00:36:55;;;;;;;4.22;2.08;;;16.60;99.90;;;;;;2080377;28;20025;-69
2022/06/20 00:37:58;;;;;;;3.50;1.80;;;16.60;99.90;;;;;;2078758;28;20056;-69
2022/06/20 00:38:58;;;;;;;4.18;1.92;;;16.60;99.90;;;;;;2080377;28;20080;-69
2022/06/20 00:40:00;;;;;;;3.90;1.88;;;16.60;99.90;;;;;;2078872;28;20077;-69
2022/06/20 00:41:11;;;;;;;4.15;1.92;;;16.70;99.90;;;;;;2077978;28;20018;-69
2022/06/20 00:42:12;;;;;;;3.72;1.90;;;16.70;99.90;;;;;;2080952;28;20515;-69
2022/06/20 00:43:19;;;;;;;5.07;2.53;;;16.70;99.90;;;;;;2080754;28;20718;-69
2022/06/20 00:44:34;;;;;;;3.40;1.80;;;16.70;99.90;;;;;;2078955;28;20072;-69
2022/06/20 00:45:40;;;;;;;3.88;1.95;;;16.70;99.90;;;;;;2075595;28;20461;-69
2022/06/20 00:46:49;;;;;;;3.85;1.55;;;16.70;99.90;;;;;;2079532;28;20017;-69
2022/06/20 00:47:52;;;;;;;5.15;1.80;;;16.70;99.90;;;;;;2080308;28;20026;-69
2022/06/20 00:49:09;;;;;;;4.10;1.83;;;16.80;99.90;;;;;;2078148;28;20025;-69
2022/06/20 00:50:17;;;;;;;6.15;2.08;;;16.80;99.90;;;;;;2077982;28;20029;-69
2022/06/20 00:51:42;;;;;;;6.47;2.13;;;16.80;99.90;;;;;;2079732;28;20033;-69
2022/06/20 00:52:59;;;;;;;4.28;1.52;;;16.80;99.90;;;;;;2079191;28;20021;-69
2022/06/20 00:54:18;;;;;;;4.13;1.90;;;16.80;99.90;;;;;;2078339;28;20017;-69
2022/06/20 00:55:28;;;;;;;5.05;2.20;;;16.80;99.90;;;;;;2078731;28;20033;-69
2022/06/20 00:56:53;;;;;;;3.90;2.17;;;16.80;99.90;;;;;;2078187;28;20017;-69
2022/06/20 00:58:01;;;;;;;2.95;2.25;;;16.80;99.90;;;;;;2078475;28;20100;-69
2022/06/20 00:59:09;;;;;;;3.88;1.85;;;16.80;99.90;;;;;;2077089;28;20366;-69
2022/06/20 01:00:22;;;;;;;3.80;2.08;;;16.80;99.90;;;;;;2077691;28;20074;-69
2022/06/20 01:01:31;;;;;;;4.22;2.47;;;16.80;99.90;;;;;;2078688;28;20392;-69
2022/06/20 01:02:38;;;;;;;3.03;1.60;;;16.80;99.90;;;;;;2082799;28;20452;-69
2022/06/20 01:03:45;;;;;;;3.10;1.98;;;16.80;99.90;;;;;;2078154;28;20032;-69
2022/06/20 01:04:52;;;;;;;4.60;2.05;;;16.80;99.90;;;;;;2080766;28;20022;-69
2022/06/20 01:05:58;;;;;;;4.57;1.90;;;16.80;99.90;;;;;;2080730;28;20021;-69
2022/06/20 01:07:03;;;;;;;3.67;2.03;;;16.80;99.90;;;;;;2078526;28;20018;-69
2022/06/20 01:08:25;;;;;;;4.28;1.95;;;16.80;99.90;;;;;;2079353;28;20033;-69
2022/06/20 01:09:32;;;;;;;5.45;1.88;;;16.80;99.90;;;;;;2077655;28;20014;-69
2022/06/20 01:10:45;;;;;;;5.85;2.72;;;16.80;99.90;;;;;;2080480;28;20358;-69
2022/06/20 01:11:53;;;;;;;7.03;2.47;;;16.80;99.90;;;;;;2082656;28;20084;-69
2022/06/20 01:13:09;;;;;;;6.13;2.45;;;16.80;99.90;;;;;;2078812;28;20546;-69
2022/06/20 01:14:36;;;;;;;4.70;2.47;;;16.70;99.90;;;;;;2081659;28;20017;-69
2022/06/20 01:15:40;;;;;;;5.88;2.22;;;16.70;99.90;;;;;;2078495;28;20017;-69
2022/06/20 01:16:41;;;;;;;7.53;2.33;;;16.70;99.90;;;;;;2076637;28;20524;-69
2022/06/20 01:17:42;;;;;;;3.92;2.50;;;16.70;99.90;;;;;;2078061;28;20330;-69
2022/06/20 01:18:44;;;;;;;4.82;2.60;;;16.70;99.90;;;;;;2078712;28;20477;-69
2022/06/20 01:20:17;;;;;;;3.85;2.65;;;16.70;99.90;;;;;;2077180;28;20080;-69
2022/06/20 01:21:27;;;;;;;3.13;2.03;;;16.70;99.90;;;;;;2076555;28;20025;-69
2022/06/20 01:22:50;;;;;;;;;;;16.70;99.90;;;;;;2079450;28;20101;-69
2022/06/20 01:24:23;;;;;;;4.90;2.00;;;16.60;99.90;;;;;;2076073;28;20323;-69
2022/06/20 01:25:52;;;;;;;3.85;2.38;;;16.60;99.90;;;;;;2072502;28;20038;-69
2022/06/20 01:27:12;;;;;;;6.05;2.70;;;16.60;99.90;;;;;;2078815;28;20033;-69
2022/06/20 01:28:17;;;;;;;5.05;2.50;;;16.60;99.90;;;;;;2078255;28;20025;-69
2022/06/20 01:29:18;;;;;;;5.13;2.67;;;16.60;99.90;;;;;;2079330;28;20033;-69
2022/06/20 01:30:22;;;;;;;3.08;1.83;;;16.70;99.90;;;;;;2070450;28;20026;-69
2022/06/20 01:31:24;;;;;;;4.40;2.50;;;16.70;99.90;;;;;;2070560;28;20057;-69
2022/06/20 01:32:25;;;;;;;2.83;2.10;;;16.70;99.90;;;;;;2079007;28;20112;-69
2022/06/20 01:33:27;;;;;;;3.78;2.03;;;16.70;99.90;;;;;;2078732;28;20025;-69
2022/06/20 01:34:28;;;;;;;7.45;2.15;;;16.80;99.90;;;;;;2077141;28;20511;-69
2022/06/20 01:38:21;;;;;;;6.47;2.40;;;16.80;99.90;;;;;;2079025;28;20032;-69
2022/06/20 01:39:23;;;;;;;5.10;2.10;;;16.80;99.90;;;;;;2080602;28;20115;-69
2022/06/20 01:40:24;;;;;;;4.68;2.17;;;16.90;99.90;;;;;;2079229;28;20109;-68
2022/06/20 01:42:45;;;;;;;5.25;1.92;;;16.90;99.90;;;;;;2076410;28;20034;-69
2022/06/20 01:43:47;;;;;;;5.03;2.40;;;16.90;99.90;;;;;;2079555;28;20025;-68
2022/06/20 01:44:50;;;;;;;9.35;3.17;;;16.90;99.90;;;;;;2079647;28;20218;-69
2022/06/20 01:45:59;;;;;;;6.38;2.78;;;16.90;99.90;;;;;;2080102;28;20021;-69
2022/06/20 01:47:00;;;;;;;4.13;2.37;;;16.90;99.90;;;;;;2082349;28;20109;-68
2022/06/20 01:48:18;;;;;;;5.47;2.22;;;16.90;99.90;;;;;;2079762;28;20272;-68
2022/06/20 01:49:24;;;;;;;3.67;2.25;;;16.90;99.90;;;;;;2079741;28;20013;-68
2022/06/20 01:50:25;;;;;;;5.03;2.28;;;16.90;99.90;;;;;;2079224;28;20032;-68
2022/06/20 01:51:42;;;;;;;5.20;2.40;;;16.90;99.90;;;;;;2079365;28;20100;-69
2022/06/20 01:52:44;;;;;;;8.48;2.53;;;16.90;99.90;;;;;;2080446;28;20543;-69
2022/06/20 01:53:46;;;;;;;7.18;2.53;;;16.90;99.90;;;;;;2073067;28;20021;-69
2022/06/20 01:54:51;;;;;;;6.70;2.35;;;17.00;99.90;;;;;;2080129;28;20480;-69
2022/06/20 01:55:54;;;;;;;6.05;2.67;;;17.00;99.90;;;;;;2080342;28;20032;-69
2022/06/20 01:56:55;;;;;;;6.35;2.63;;;17.00;99.90;;;;;;2079611;28;20100;-69
2022/06/20 01:58:09;;;;;;;5.72;2.38;;;17.00;99.90;;;;;;2079805;28;20021;-69
2022/06/20 01:59:19;;;;;;;5.22;2.67;;;17.00;99.90;;;;;;2080578;28;20506;-69
2022/06/20 02:00:22;;;;;;;4.78;2.22;;;17.00;99.90;;;;;;2078192;28;20026;-69
2022/06/20 02:01:25;;;;;;;7.93;2.53;;;17.10;99.90;;;;;;2079364;28;20036;-69
2022/06/20 02:02:29;;;;;;;4.80;3.00;;;17.10;99.90;;;;;;2079726;28;20033;-69
2022/06/20 02:03:36;;;;;;;3.58;2.13;;;17.10;99.90;;;;;;2080704;28;20377;-69
2022/06/20 02:04:38;;;;;;;6.15;2.83;;;17.10;99.90;;;;;;2078391;28;20144;-69
2022/06/20 02:05:39;;;;;;;5.43;2.30;;;17.10;99.90;;;;;;2080700;28;20439;-69
2022/06/20 02:06:40;;;;;;;3.58;1.95;;;17.10;99.90;;;;;;2078475;28;20017;-69
2022/06/20 02:07:42;;;;;;;4.35;1.85;;;17.10;99.90;;;;;;2079454;28;20021;-69
2022/06/20 02:08:48;;;;;;;6.70;2.70;;;17.10;99.90;;;;;;2074028;28;20025;-69
2022/06/20 02:09:50;;;;;;;4.15;2.70;;;17.10;99.90;;;;;;2078417;28;20096;-69
2022/06/20 02:11:16;;;;;;;6.40;2.13;;;17.10;99.90;;;;;;2079607;28;20362;-69
2022/06/20 02:12:18;;;;;;;5.07;1.67;;;17.10;99.90;;;;;;2079061;28;20025;-69
2022/06/20 02:13:21;;;;;;;4.30;2.10;;;17.10;99.90;;;;;;2078925;28;20422;-69
2022/06/20 02:14:46;;;;;;;3.22;1.88;;;17.10;99.90;;;;;;2078731;28;20060;-69
2022/06/20 02:15:51;;;;;;;5.15;2.20;;;17.10;99.90;;;;;;2070588;28;20528;-69
2022/06/20 02:16:56;;;;;;;4.15;2.20;;;17.10;99.90;;;;;;2071537;28;20037;-69
2022/06/20 02:18:01;;;;;;;5.50;2.20;;;17.10;99.90;;;;;;2078877;28;20667;-69
2022/06/20 02:19:06;;;;;;;4.60;1.90;;;17.10;99.90;;;;;;2069982;28;20038;-69
2022/06/20 02:20:13;;;;;;;3.80;2.38;;;17.10;99.90;;;;;;2069520;28;20025;-69
2022/06/20 02:21:19;;;;;;;5.60;2.60;;;17.10;99.90;;;;;;2080430;28;20120;-69
2022/06/20 02:22:22;;;;;;;2.17;1.98;;;17.10;99.90;;;;;;2080822;28;20564;-69
2022/06/20 02:23:26;;;;;;;4.55;2.25;;;17.00;99.90;;;;;;2077949;28;20022;-69
2022/06/20 02:24:31;;;;;;;2.55;1.80;;;17.00;99.90;;;;;;2080982;28;20021;-69
2022/06/20 02:25:34;;;;;;;6.05;2.47;;;17.00;99.90;;;;;;2079310;28;20057;-69
2022/06/20 02:26:37;;;;;;;5.13;2.40;;;17.00;99.90;;;;;;2078113;28;20029;-69
2022/06/20 02:27:41;;;;;;;5.72;2.70;;;17.00;99.90;;;;;;2078936;28;20026;-69
2022/06/20 02:28:50;;;;;;;7.53;2.67;;;17.00;99.90;;;;;;2080510;28;20393;-69
2022/06/20 02:29:51;;;;;;;4.05;2.20;;;17.00;99.90;;;;;;2078211;28;20055;-69
2022/06/20 02:30:52;;;;;;;3.67;1.95;;;16.90;99.90;;;;;;2078935;28;20136;-69
2022/06/20 02:32:09;;;;;;;8.68;2.75;;;17.00;99.90;;;;;;2078685;28;20030;-69
2022/06/20 02:33:22;;;;;;;5.53;2.25;;;16.90;99.90;;;;;;2081287;28;20033;-69
2022/06/20 02:34:26;;;;;;;10.13;2.95;;;16.90;99.90;;;;;;2077607;28;20092;-69
2022/06/20 02:35:27;;;;;;;5.47;2.83;;;16.90;99.90;;;;;;2077447;28;20057;-69
2022/06/20 02:36:31;;;;;;;5.78;2.40;;;16.90;99.90;;;;;;2080428;28;20105;-69
2022/06/20 02:37:34;;;;;;;5.35;2.70;;;16.90;99.90;;;;;;2079620;28;20032;-69
2022/06/20 02:38:36;;;;;;;5.50;2.30;;;16.80;99.90;;;;;;2079890;28;20071;-69
2022/06/20 02:39:41;;;;;;;5.47;2.60;;;16.80;99.90;;;;;;2078150;28;20045;-69
2022/06/20 02:40:42;;;;;;;5.63;2.67;;;16.80;99.90;;;;;;2078642;28;20129;-69
2022/06/20 02:41:45;;;;;;;3.95;2.78;;;16.80;99.90;;;;;;2078703;28;20040;-69
2022/06/20 02:43:11;;;;;;;6.55;2.97;;;16.80;99.90;;;;;;2079882;28;20017;-69
2022/06/20 02:44:17;;;;;;;4.53;2.55;;;16.70;99.90;;;;;;2079569;28;20510;-69
2022/06/20 02:45:20;;;;;;;3.70;2.83;;;16.70;99.90;;;;;;2078659;28;20060;-69
2022/06/20 02:46:25;;;;;;;8.10;3.25;;;16.70;99.90;;;;;;2078539;28;20041;-69
2022/06/20 02:47:27;;;;;;;5.53;2.42;;;16.60;99.90;;;;;;2078218;28;20066;-69
2022/06/20 02:48:31;;;;;;;6.70;2.50;;;16.70;99.90;;;;;;2079343;28;20793;-69
2022/06/20 02:49:33;;;;;;;4.53;2.55;;;16.60;99.90;;;;;;2079016;28;20021;-69
2022/06/20 02:50:39;;;;;;;5.57;3.03;;;16.60;99.90;;;;;;2078018;28;20100;-69
2022/06/20 02:51:45;;;;;;;6.80;3.40;;;16.60;99.90;;;;;;2079694;28;20504;-69
2022/06/20 02:53:02;;;;;;;4.78;2.15;;;16.60;99.90;;;;;;2081037;28;20108;-69
2022/06/20 02:54:05;;;;;;;6.80;2.65;;;16.50;99.90;;;;;;2077160;28;20026;-69
2022/06/20 02:55:07;;;;;;;5.53;2.88;;;16.50;99.90;;;;;;2079758;28;20404;-69
2022/06/20 02:56:12;;;;;;;5.00;2.78;;;16.50;99.90;;;;;;2080333;28;20522;-69
2022/06/20 02:57:29;;;;;;;5.88;2.80;;;16.50;99.90;;;;;;2078145;28;20087;-69
2022/06/20 02:58:33;;;;;;;5.78;2.95;;;16.50;99.90;;;;;;2077462;28;20033;-69
2022/06/20 02:59:41;;;;;;;5.75;3.08;;;16.40;99.90;;;;;;2076903;28;20033;-69
2022/06/20 03:00:59;;;;;;;8.23;3.30;;;16.40;99.90;;;;;;2078694;28;20492;-69
2022/06/20 03:02:06;;;;;;;9.90;3.05;;;16.40;99.90;;;;;;2079054;28;20075;-69
2022/06/20 03:03:15;;;;;;;4.65;2.83;;;16.30;99.90;;;;;;2076795;28;20034;-69
2022/06/20 03:04:16;;;;;;;3.92;2.50;;;16.30;99.90;;;;;;2082193;28;20040;-69
2022/06/20 03:05:18;;;;;;;5.53;3.10;;;16.30;99.90;;;;;;2077167;28;20056;-69
2022/06/20 03:06:27;;;;;;;4.60;2.60;;;16.20;99.90;;;;;;2080371;28;20032;-69
2022/06/20 03:07:37;;;;;;;5.10;2.75;;;16.20;99.90;;;;;;2078499;28;20105;-69
2022/06/20 03:08:37;;;;;;;;;;;16.20;99.90;;;;;;2080659;28;20053;-69
2022/06/20 03:09:41;;;;;;;5.35;2.65;;;16.00;99.90;;;;;;2078163;28;19963;-69
2022/06/20 03:10:46;;;;;;;6.35;2.60;;;16.00;99.90;;;;;;2072720;28;20042;-69
2022/06/20 03:11:47;;;;;;;7.25;2.90;;;16.00;99.90;;;;;;2070687;28;20425;-69
2022/06/20 03:12:47;;;;;;;7.97;3.15;;;16.00;99.90;;;;;;2077610;28;20029;-69
2022/06/20 03:13:49;;;;;;;6.57;3.28;;;16.00;99.90;;;;;;2076077;28;20393;-69
2022/06/20 03:14:57;;;;;;;6.20;2.95;;;15.90;99.90;;;;;;2078113;28;20022;-69
2022/06/20 03:16:00;;;;;;;7.68;2.78;;;15.90;99.90;;;;;;2078067;28;20488;-69
2022/06/20 03:17:03;;;;;;;3.38;2.72;;;15.90;99.90;;;;;;2079213;28;20030;-69
2022/06/20 03:18:05;;;;;;;7.30;2.97;;;15.90;99.90;;;;;;2076079;28;22285;-69
2022/06/20 03:19:27;;;;;;;6.25;2.67;;;15.80;99.90;;;;;;2076829;28;20129;-69
2022/06/20 03:20:28;;;;;;;6.70;2.90;;;15.80;99.90;;;;;;2080692;28;20778;-69
2022/06/20 03:21:35;;;;;;;9.07;3.00;;;15.80;99.90;;;;;;2079304;28;20386;-69
2022/06/20 03:22:40;;;;;;;7.50;2.90;;;15.80;99.90;;;;;;2077239;28;20033;-69
2022/06/20 03:23:41;;;;;;;8.93;3.40;;;15.80;99.90;;;;;;2081374;28;20029;-69
2022/06/20 03:24:44;;;;;;;3.63;2.30;;;15.70;99.90;;;;;;2079426;28;20492;-69
2022/06/20 03:25:45;;;;;;;8.13;3.20;;;15.70;99.90;;;;;;2078110;28;20036;-69
2022/06/20 03:26:46;;;;;;;8.77;3.45;;;15.70;99.90;;;;;;2080301;28;20025;-69
2022/06/20 03:27:51;;;;;;;7.78;2.70;;;15.70;99.90;;;;;;2079092;28;20027;-69
2022/06/20 03:28:53;;;;;;;10.95;2.80;;;15.60;99.90;;;;;;2072933;28;20022;-69
2022/06/20 03:30:16;;;;;;;6.22;2.63;;;15.70;99.90;;;;;;2071815;28;20107;-69
2022/06/20 03:31:17;;;;;;;6.75;2.53;;;15.60;99.90;;;;;;2079555;28;20029;-69
2022/06/20 03:32:18;;;;;;;9.00;2.92;;;15.60;99.90;;;;;;2080459;28;20477;-69
2022/06/20 03:33:21;;;;;;;7.90;2.80;;;15.60;99.90;;;;;;2081979;28;20068;-69
2022/06/20 03:34:23;;;;;;;15.43;3.10;;;15.50;99.90;;;;;;2078719;28;20061;-69
2022/06/20 03:35:26;;;;;;;9.60;2.95;;;15.50;99.90;;;;;;2080948;28;20025;-69
2022/06/20 03:36:28;;;;;;;6.45;2.47;;;15.60;99.90;;;;;;2079019;28;20465;-69
2022/06/20 03:37:28;;;;;;;4.38;2.25;;;15.50;99.90;;;;;;2078939;28;20439;-69
2022/06/20 03:38:29;;;;;;;8.40;2.80;;;15.50;99.90;;;;;;2072458;28;20030;-69
2022/06/20 03:39:30;;;;;;;7.85;2.50;;;15.50;99.90;;;;;;2073486;28;20488;-69
2022/06/20 03:40:31;;;;;;;5.93;2.50;;;15.50;99.90;;;;;;2078155;28;20112;-69
2022/06/20 03:41:33;;;;;;;8.13;2.40;;;15.50;99.90;;;;;;2081416;28;20029;-69
2022/06/20 03:42:33;;;;;;;5.07;2.60;;;15.50;99.90;;;;;;2079433;28;20033;-69
2022/06/20 03:43:35;;;;;;;9.80;2.78;;;15.50;99.90;;;;;;2080076;28;20476;-69
2022/06/20 03:44:53;;;;;;;6.38;2.47;;;15.50;99.90;;;;;;2080508;28;20057;-69
2022/06/20 03:46:00;;;;;;;6.93;2.53;;;15.50;99.90;;;;;;2078692;28;20354;-69
2022/06/20 03:47:12;;;;;;;6.45;2.83;;;15.50;99.90;;;;;;2079537;28;21186;-69
2022/06/20 03:48:18;;;;;;;5.20;2.70;;;15.50;99.90;;;;;;2079103;28;20032;-69
2022/06/20 03:49:40;;;;;;;11.38;3.45;;;15.50;99.90;;;;;;2078388;28;20026;-69
2022/06/20 03:50:51;;;;;;;9.00;2.85;;;15.40;99.90;;;;;;2078911;28;20033;-69
2022/06/20 03:52:05;;;;;;;6.78;2.53;;;15.50;99.90;;;;;;2079409;28;20018;-69
2022/06/20 03:53:49;;;;;;;7.45;2.78;;;15.40;99.90;;;;;;2078837;28;20468;-69
2022/06/20 03:54:59;;;;;;;7.85;2.58;;;15.40;99.90;;;;;;2051225;28;20102;-69
2022/06/20 03:56:15;;;;;;;;;;;15.40;99.90;;;;;;2052400;28;20030;-69
2022/06/20 03:57:18;;;;;;;8.88;2.80;;;15.30;99.90;;;;;;2051350;28;19921;-69
2022/06/20 03:58:33;;;;;;;7.45;2.83;;;15.30;99.90;;;;;;2051969;28;20033;-69
2022/06/20 03:59:52;;;;;;;7.40;2.80;;;15.40;99.90;;;;;;2053110;28;20039;-69
2022/06/20 04:01:06;;;;;;;7.20;2.97;;;15.40;99.90;;;;;;2076288;28;20645;-69
2022/06/20 04:02:17;;;;;;;5.80;2.60;;;15.40;99.90;;;;;;2080443;28;20476;-69
2022/06/20 04:03:34;;;;;;;7.68;2.88;;;15.40;99.90;;;;;;2079753;28;20516;-69
2022/06/20 04:04:57;;;;;;;9.05;2.90;;;15.40;99.90;;;;;;2081105;28;20036;-69
2022/06/20 04:06:09;;;;;;;5.65;3.00;;;15.40;99.90;;;;;;2078800;28;20057;-69
2022/06/20 04:07:31;;;;;;;9.07;3.08;;;15.40;99.90;;;;;;2076881;28;20053;-69
2022/06/20 04:11:42;;;;;;;6.47;2.55;;;15.40;99.90;;;;;;2079944;28;20451;-69
2022/06/20 04:13:00;;;;;;;7.18;2.92;;;15.40;99.90;;;;;;2080595;28;20068;-69
2022/06/20 04:14:12;;;;;;;7.63;2.97;;;15.40;99.90;;;;;;2078128;28;20732;-69
2022/06/20 04:15:19;;;;;;;6.47;2.60;;;15.40;99.90;;;;;;2079073;28;20034;-69
2022/06/20 04:16:31;;;;;;;8.02;2.67;;;15.40;99.90;;;;;;2078556;28;20021;-69
2022/06/20 04:19:14;;;;;;;9.98;2.75;;;15.50;99.90;;;;;;2081544;28;20108;-69
2022/06/20 04:20:32;;;;;;;10.82;2.88;;;15.50;99.90;;;;;;2077747;28;20405;-69
2022/06/20 04:21:48;;;;;;;6.32;2.95;;;15.50;99.90;;;;;;2078751;28;20017;-69
2022/06/20 04:22:52;;;;;;;6.97;2.60;;;15.50;99.90;;;;;;2077999;28;20036;-69
2022/06/20 04:24:12;;;;;;;9.77;2.92;;;15.50;99.90;;;;;;2079589;28;20029;-69
2022/06/20 04:25:30;;;;;;;5.95;2.95;;;15.50;99.90;;;;;;2078879;28;20105;-69
2022/06/20 04:26:39;;;;;;;7.30;2.85;;;15.50;99.90;;;;;;2078769;28;20097;-69
2022/06/20 04:27:52;;;;;;;6.88;2.40;;;15.60;99.90;;;;;;2082251;28;20060;-69
2022/06/20 04:28:58;;;;;;;6.05;2.42;;;15.60;99.90;;;;;;2079114;28;20033;-69
2022/06/20 04:30:05;;;;;;;6.50;2.63;;;15.60;99.90;;;;;;2078274;28;20030;-69
2022/06/20 04:31:21;;;;;;;7.38;1.98;;;15.60;99.90;;;;;;2081919;28;20013;-69
2022/06/20 04:32:51;;;;;;;5.78;2.22;;;15.60;99.90;;;;;;2076413;28;21535;-69
2022/06/20 04:34:20;;;;;;;7.15;2.67;;;15.70;99.90;;;;;;2080783;28;20116;-69
2022/06/20 04:35:23;;;;;;;9.13;2.28;;;15.70;99.90;;;;;;2078653;28;20501;-69
2022/06/20 04:37:15;;;;;;;8.43;2.35;;;15.70;99.90;;;;;;2079095;28;20042;-69
2022/06/20 04:38:24;;;;;;;8.35;2.67;;;15.70;99.90;;;;;;2067100;28;20512;-69
2022/06/20 04:39:58;;;;;;;7.50;2.93;;;15.70;99.90;;;;;;2077416;28;20032;-69
2022/06/20 04:41:17;;;;;;;7.22;2.42;;;15.70;99.90;;;;;;2076593;28;20710;-69
2022/06/20 04:42:36;;;;;;;7.75;2.40;;;15.70;99.90;;;;;;2072590;28;20492;-69
2022/06/20 04:43:48;;;;;;;6.68;2.28;;;15.70;99.90;;;;;;2073096;28;20030;-69
2022/06/20 04:44:56;;;;;;;7.50;2.92;;;15.70;99.90;;;;;;2078186;28;20026;-69
2022/06/20 04:46:11;;;;;;;6.20;2.47;;;15.80;99.90;;;;;;2078271;28;20092;-69
2022/06/20 04:47:29;;;;;;;4.97;1.98;;;15.80;99.90;;;;;;2078235;28;20031;-69
2022/06/20 04:48:30;;;;;;;7.47;2.75;;;15.80;99.90;;;;;;2078194;28;20492;-69
2022/06/20 04:49:31;;;;;;;5.78;2.35;;;15.90;99.90;;;;;;2077822;28;20476;-69
2022/06/20 04:50:34;;;;;;;5.65;2.33;;;15.90;99.90;;;;;;2078185;28;20021;-69
2022/06/20 04:51:39;;;;;;;7.53;2.53;;;15.90;99.90;;;;;;2081551;28;20795;-69
2022/06/20 04:52:40;;;;;;;5.03;2.40;;;16.00;99.90;;;;;;2079957;28;20036;-69
2022/06/20 04:53:43;;;;;;;6.32;2.75;;;16.00;99.90;;;;;;2076280;28;20028;-69
2022/06/20 04:54:44;;;;;;;7.55;2.90;;;16.00;99.90;;;;;;2079226;28;20030;-69
2022/06/20 04:55:48;;;;;;;6.13;2.67;;;16.00;99.90;;;;;;2075679;28;20053;-69
2022/06/20 04:56:54;;;;;;;7.13;2.83;;;16.10;99.90;;;;;;2075193;28;20120;-69
2022/06/20 04:57:59;;;;;;;4.88;1.95;;;16.10;99.90;;;;;;2076048;28;20030;-69
2022/06/20 04:59:03;;;;;;;8.45;2.67;;;16.10;99.90;;;;;;2076679;28;20033;-69
2022/06/20 05:00:09;;;;;;;6.53;2.40;;;16.10;99.90;;;;;;2077292;28;20440;-69
2022/06/20 05:01:09;;;;;;;8.05;2.78;;;16.20;99.90;;;;;;2077888;28;20071;-69
2022/06/20 05:02:18;;;;;;;5.07;2.38;;;16.10;99.90;;;;;;2077727;28;20070;-69
2022/06/20 05:03:23;;;;;;;5.63;2.70;;;16.20;99.90;;;;;;2071516;28;20026;-69
2022/06/20 05:04:37;;;;;;;8.18;3.10;;;16.20;99.90;;;;;;2071266;28;20033;-69
2022/06/20 05:05:43;;;;;;;8.43;2.67;;;16.20;99.90;;;;;;2076358;28;20052;-69
2022/06/20 05:06:44;;;;;;;8.35;2.80;;;16.20;99.90;;;;;;2077978;28;20057;-69
2022/06/20 05:07:46;;;;;;;4.90;1.80;;;16.30;99.90;;;;;;2078966;28;20029;-69
2022/06/20 05:08:53;;;;;;;7.68;2.88;;;16.30;99.90;;;;;;2077236;28;20113;-69
2022/06/20 05:10:08;;;;;;;5.78;2.30;;;16.30;99.90;;;;;;2079045;28;20043;-69
2022/06/20 05:11:20;;;;;;;5.47;2.00;;;16.30;99.90;;;;;;2067811;28;20414;-69
2022/06/20 05:12:37;;;;;;;8.52;2.83;;;16.30;99.90;;;;;;2070223;28;20048;-69
2022/06/20 05:13:57;;;;;;;8.30;2.95;;;16.30;99.90;;;;;;2077616;28;20064;-69
2022/06/20 05:15:19;;;;;;;5.75;2.13;;;16.30;99.90;;;;;;2079959;28;20029;-69
2022/06/20 05:16:24;;;;;;;7.75;2.47;;;16.20;99.90;;;;;;2080034;28;20025;-69
2022/06/20 05:17:29;;;;;;;8.20;3.00;;;16.20;99.90;;;;;;2077889;28;20029;-69
2022/06/20 05:18:37;;;;;;;6.38;2.40;;;16.20;99.90;;;;;;2076517;28;20017;-69
2022/06/20 05:19:44;;;;;;;12.55;2.55;;;16.30;99.90;;;;;;2076060;28;21213;-69
2022/06/20 05:20:46;;;;;;;7.72;2.72;;;16.30;99.90;;;;;;2074441;28;20105;-69
2022/06/20 05:21:52;;;;;;;6.05;2.28;;;16.30;99.90;;;;;;2074946;28;20026;-69
2022/06/20 05:23:17;;;;;;;7.65;2.50;;;16.30;99.90;;;;;;2079044;28;20033;-69
2022/06/20 05:24:27;;;;;;;8.98;2.55;;;16.30;99.90;;;;;;2078461;28;20045;-69
2022/06/20 05:25:30;;;;;;;5.53;2.30;;;16.30;99.90;;;;;;2078249;28;20018;-69
2022/06/20 05:26:36;;;;;;;6.30;2.30;;;16.30;99.90;;;;;;2076573;28;20048;-69
2022/06/20 05:28:15;;;;;;;6.38;2.28;;;16.20;99.90;;;;;;2079315;28;20021;-69
2022/06/20 05:29:28;;;;;;;8.90;2.45;;;16.30;99.90;;;;;;2076791;28;20037;-69
2022/06/20 05:30:32;;;;;;;7.15;2.17;;;16.30;99.90;;;;;;2078277;28;20104;-69
2022/06/20 05:31:42;;;;;;;7.75;2.67;;;16.30;99.90;;;;;;2078625;28;20021;-69
2022/06/20 05:32:50;;;;;;;9.00;2.80;;;16.30;99.90;;;;;;2077053;28;20026;-69
2022/06/20 05:34:14;;;;;;;4.35;1.92;;;16.30;99.90;;;;;;2077776;28;20112;-69
2022/06/20 05:35:25;;;;;;;6.00;2.53;;;16.30;99.90;;;;;;2053716;28;20490;-69
2022/06/20 05:37:04;;;;;;;4.53;1.80;;;16.30;99.90;;;;;;2078491;28;20033;-69
2022/06/20 05:38:29;;;;;;;6.45;2.30;;;16.30;99.90;;;;;;2075654;28;20098;-69
2022/06/20 05:40:03;;;;;;;6.82;2.60;;;16.30;99.90;;;;;;2078012;28;20025;-69
2022/06/20 05:41:07;;;;;;;8.73;3.00;;;16.30;99.90;;;;;;2073358;28;20050;-69
2022/06/20 05:42:11;;;;;;;7.82;2.53;;;16.30;99.90;;;;;;2077382;28;20090;-69
2022/06/20 05:43:20;;;;;;;8.10;2.63;;;16.30;99.90;;;;;;2077140;28;20022;-69
2022/06/20 05:44:21;;;;;;;7.40;2.72;;;16.30;99.90;;;;;;2079234;28;20030;-69
2022/06/20 05:45:23;;;;;;;9.23;3.08;;;16.30;99.90;;;;;;2075567;28;20018;-69
2022/06/20 05:46:42;;;;;;;6.72;3.03;;;16.30;99.90;;;;;;2076844;28;20105;-69
2022/06/20 05:47:53;;;;;;;6.90;2.20;;;16.30;99.90;;;;;;2078603;28;20108;-69
2022/06/20 05:49:00;;;;;;;6.32;2.10;;;16.30;99.90;;;;;;2078705;28;20120;-69
2022/06/20 05:50:13;;;;;;;8.45;2.63;;;16.30;99.90;;;;;;2080151;28;20017;-69
2022/06/20 05:51:17;;;;;;;12.65;3.65;;;16.30;99.90;;;;;;2078320;28;20040;-69
2022/06/20 05:52:22;;;;;;;8.73;3.20;;;16.30;99.90;;;;;;2077951;28;20020;-69
2022/06/20 05:53:46;;;;;;;9.98;2.45;;;16.30;99.90;;;;;;2078639;28;20397;-69
2022/06/20 05:54:57;;;;;;;13.02;3.20;;;16.30;99.90;;;;;;2078972;28;20408;-69
2022/06/20 05:56:01;;;;;;;6.50;2.65;;;16.30;99.90;;;;;;2076408;28;20050;-69
2022/06/20 05:57:18;;;;;;;6.78;2.42;;;16.30;99.90;;;;;;2073697;28;20124;-69
2022/06/20 05:58:22;;;;;;;9.25;3.15;;;16.30;99.90;;;;;;2071436;28;20042;-69
2022/06/20 05:59:33;;;;;;;6.38;2.53;;;16.30;99.90;;;;;;2070949;28;20092;-69
2022/06/20 06:00:37;;;;;;;9.07;3.03;;;16.30;99.90;;;;;;2079477;28;20021;-69
2022/06/20 06:01:40;;;;;;;8.68;2.30;;;16.30;99.90;;;;;;2078682;28;20029;-69
2022/06/20 06:02:49;;;;;;;8.40;2.70;;;16.40;99.90;;;;;;2078415;28;20393;-69
2022/06/20 06:03:52;;;;;;;12.23;3.40;;;16.40;99.90;;;;;;2079814;28;20033;-69